sensor_id;sensor_type;location;lat;lon;timestamp;P1;durP1;ratioP1;P2;durP2;ratioP2
14235;SDS011;7202;50.718;7.072;2022-12-07T00:01:44;27.25;;;17.17;;
14235;SDS011;7202;50.718;7.072;2022-12-07T00:04:15;27.50;;;16.30;;
14235;SDS011;7202;50.718;7.072;2022-12-07T00:06:45;24.85;;;17.10;;
14235;SDS011;7202;50.718;7.072;2022-12-07T00:09:18;27.50;;;17.48;;
14235;SDS011;7202;50.718;7.072;2022-12-07T00:11:50;29.65;;;18.42;;
14235;SDS011;7202;50.718;7.072;2022-12-07T00:14:19;31.45;;;18.70;;
14235;SDS011;7202;50.718;7.072;2022-12-07T00:16:48;29.60;;;18.48;;
14235;SDS011;7202;50.718;7.072;2022-12-07T00:19:18;29.52;;;18.75;;
14235;SDS011;7202;50.718;7.072;2022-12-07T00:21:47;28.08;;;18.42;;
14235;SDS011;7202;50.718;7.072;2022-12-07T00:24:16;28.92;;;18.48;;
14235;SDS011;7202;50.718;7.072;2022-12-07T00:26:45;28.23;;;17.17;;
14235;SDS011;7202;50.718;7.072;2022-12-07T00:29:16;27.38;;;16.55;;
14235;SDS011;7202;50.718;7.072;2022-12-07T00:31:46;25.67;;;17.08;;
14235;SDS011;7202;50.718;7.072;2022-12-07T00:34:16;29.67;;;18.05;;
14235;SDS011;7202;50.718;7.072;2022-12-07T00:36:47;27.08;;;17.52;;
14235;SDS011;7202;50.718;7.072;2022-12-07T00:39:16;26.48;;;16.73;;
14235;SDS011;7202;50.718;7.072;2022-12-07T00:41:45;30.27;;;19.23;;
14235;SDS011;7202;50.718;7.072;2022-12-07T00:44:13;28.65;;;18.65;;
14235;SDS011;7202;50.718;7.072;2022-12-07T00:46:43;27.83;;;19.02;;
14235;SDS011;7202;50.718;7.072;2022-12-07T00:49:13;35.22;;;20.95;;
14235;SDS011;7202;50.718;7.072;2022-12-07T00:51:42;28.25;;;18.63;;
14235;SDS011;7202;50.718;7.072;2022-12-07T00:54:10;27.90;;;18.83;;
14235;SDS011;7202;50.718;7.072;2022-12-07T00:56:39;26.35;;;17.83;;
14235;SDS011;7202;50.718;7.072;2022-12-07T00:59:10;25.75;;;18.38;;
14235;SDS011;7202;50.718;7.072;2022-12-07T01:01:42;25.33;;;17.40;;
14235;SDS011;7202;50.718;7.072;2022-12-07T01:04:10;29.23;;;18.35;;
14235;SDS011;7202;50.718;7.072;2022-12-07T01:06:39;32.17;;;20.17;;
14235;SDS011;7202;50.718;7.072;2022-12-07T01:09:08;27.98;;;19.02;;
14235;SDS011;7202;50.718;7.072;2022-12-07T01:11:36;27.73;;;17.52;;
14235;SDS011;7202;50.718;7.072;2022-12-07T01:14:05;25.95;;;17.80;;
14235;SDS011;7202;50.718;7.072;2022-12-07T01:16:34;26.83;;;19.20;;
14235;SDS011;7202;50.718;7.072;2022-12-07T01:19:04;25.52;;;18.48;;
14235;SDS011;7202;50.718;7.072;2022-12-07T01:21:33;26.45;;;17.67;;
14235;SDS011;7202;50.718;7.072;2022-12-07T01:24:05;23.42;;;15.88;;
14235;SDS011;7202;50.718;7.072;2022-12-07T01:26:35;30.20;;;19.42;;
14235;SDS011;7202;50.718;7.072;2022-12-07T01:29:04;31.00;;;20.10;;
14235;SDS011;7202;50.718;7.072;2022-12-07T01:31:32;27.63;;;19.55;;
14235;SDS011;7202;50.718;7.072;2022-12-07T01:34:01;27.38;;;19.40;;
14235;SDS011;7202;50.718;7.072;2022-12-07T01:36:32;28.58;;;18.00;;
14235;SDS011;7202;50.718;7.072;2022-12-07T01:39:03;31.27;;;19.35;;
14235;SDS011;7202;50.718;7.072;2022-12-07T01:41:35;28.50;;;18.45;;
14235;SDS011;7202;50.718;7.072;2022-12-07T01:44:07;29.77;;;17.70;;
14235;SDS011;7202;50.718;7.072;2022-12-07T01:46:39;28.70;;;20.27;;
14235;SDS011;7202;50.718;7.072;2022-12-07T01:49:09;26.95;;;19.70;;
14235;SDS011;7202;50.718;7.072;2022-12-07T01:51:43;27.83;;;19.33;;
14235;SDS011;7202;50.718;7.072;2022-12-07T01:54:14;26.98;;;19.27;;
14235;SDS011;7202;50.718;7.072;2022-12-07T01:56:45;31.75;;;19.48;;
14235;SDS011;7202;50.718;7.072;2022-12-07T01:59:18;28.50;;;19.52;;
14235;SDS011;7202;50.718;7.072;2022-12-07T02:01:49;29.73;;;20.08;;
14235;SDS011;7202;50.718;7.072;2022-12-07T02:04:18;29.67;;;20.25;;
14235;SDS011;7202;50.718;7.072;2022-12-07T02:06:48;29.60;;;19.58;;
14235;SDS011;7202;50.718;7.072;2022-12-07T02:09:18;28.77;;;20.48;;
14235;SDS011;7202;50.718;7.072;2022-12-07T02:11:46;28.88;;;19.75;;
14235;SDS011;7202;50.718;7.072;2022-12-07T02:14:15;31.17;;;19.15;;
14235;SDS011;7202;50.718;7.072;2022-12-07T02:16:47;28.23;;;19.33;;
14235;SDS011;7202;50.718;7.072;2022-12-07T02:22:43;27.00;;;18.90;;
14235;SDS011;7202;50.718;7.072;2022-12-07T02:25:32;31.70;;;21.10;;
14235;SDS011;7202;50.718;7.072;2022-12-07T02:28:12;31.33;;;22.35;;
14235;SDS011;7202;50.718;7.072;2022-12-07T02:30:57;31.75;;;21.75;;
14235;SDS011;7202;50.718;7.072;2022-12-07T02:33:31;34.60;;;22.48;;
14235;SDS011;7202;50.718;7.072;2022-12-07T02:36:04;35.13;;;22.42;;
14235;SDS011;7202;50.718;7.072;2022-12-07T02:38:37;33.03;;;21.23;;
14235;SDS011;7202;50.718;7.072;2022-12-07T02:41:09;31.58;;;21.52;;
14235;SDS011;7202;50.718;7.072;2022-12-07T02:43:41;33.58;;;21.75;;
14235;SDS011;7202;50.718;7.072;2022-12-07T02:46:15;33.72;;;22.20;;
14235;SDS011;7202;50.718;7.072;2022-12-07T02:48:48;33.25;;;20.98;;
14235;SDS011;7202;50.718;7.072;2022-12-07T02:51:19;27.75;;;20.33;;
14235;SDS011;7202;50.718;7.072;2022-12-07T02:53:48;29.10;;;20.63;;
14235;SDS011;7202;50.718;7.072;2022-12-07T02:56:19;31.23;;;21.05;;
14235;SDS011;7202;50.718;7.072;2022-12-07T02:58:56;31.85;;;20.20;;
14235;SDS011;7202;50.718;7.072;2022-12-07T03:01:33;34.85;;;21.77;;
14235;SDS011;7202;50.718;7.072;2022-12-07T03:04:16;29.92;;;20.80;;
14235;SDS011;7202;50.718;7.072;2022-12-07T03:07:02;31.52;;;21.05;;
14235;SDS011;7202;50.718;7.072;2022-12-07T03:09:42;32.35;;;21.65;;
14235;SDS011;7202;50.718;7.072;2022-12-07T03:12:20;31.83;;;20.95;;
14235;SDS011;7202;50.718;7.072;2022-12-07T03:15:00;32.53;;;21.17;;
14235;SDS011;7202;50.718;7.072;2022-12-07T03:17:35;30.23;;;20.98;;
14235;SDS011;7202;50.718;7.072;2022-12-07T03:20:09;34.00;;;22.15;;
14235;SDS011;7202;50.718;7.072;2022-12-07T03:22:41;29.73;;;21.83;;
14235;SDS011;7202;50.718;7.072;2022-12-07T03:25:12;29.73;;;21.67;;
14235;SDS011;7202;50.718;7.072;2022-12-07T03:27:44;31.10;;;19.55;;
14235;SDS011;7202;50.718;7.072;2022-12-07T03:30:19;31.10;;;21.98;;
14235;SDS011;7202;50.718;7.072;2022-12-07T03:32:54;30.88;;;20.17;;
14235;SDS011;7202;50.718;7.072;2022-12-07T03:35:28;31.48;;;20.90;;
14235;SDS011;7202;50.718;7.072;2022-12-07T03:38:02;32.55;;;20.05;;
14235;SDS011;7202;50.718;7.072;2022-12-07T03:40:39;31.70;;;19.95;;
14235;SDS011;7202;50.718;7.072;2022-12-07T03:43:12;32.47;;;20.27;;
14235;SDS011;7202;50.718;7.072;2022-12-07T03:45:42;28.38;;;19.38;;
14235;SDS011;7202;50.718;7.072;2022-12-07T03:48:19;31.05;;;20.63;;
14235;SDS011;7202;50.718;7.072;2022-12-07T03:50:52;29.58;;;19.10;;
14235;SDS011;7202;50.718;7.072;2022-12-07T03:53:25;28.17;;;18.25;;
14235;SDS011;7202;50.718;7.072;2022-12-07T03:55:59;30.30;;;18.52;;
14235;SDS011;7202;50.718;7.072;2022-12-07T03:58:29;26.30;;;18.52;;
14235;SDS011;7202;50.718;7.072;2022-12-07T04:00:59;26.95;;;18.65;;
14235;SDS011;7202;50.718;7.072;2022-12-07T04:03:28;26.90;;;18.55;;
14235;SDS011;7202;50.718;7.072;2022-12-07T04:05:57;32.97;;;18.90;;
14235;SDS011;7202;50.718;7.072;2022-12-07T04:08:26;26.35;;;18.38;;
14235;SDS011;7202;50.718;7.072;2022-12-07T04:10:55;28.67;;;18.85;;
14235;SDS011;7202;50.718;7.072;2022-12-07T04:13:23;25.05;;;17.63;;
14235;SDS011;7202;50.718;7.072;2022-12-07T04:15:52;32.25;;;17.88;;
14235;SDS011;7202;50.718;7.072;2022-12-07T04:18:21;25.70;;;19.40;;
14235;SDS011;7202;50.718;7.072;2022-12-07T04:20:51;26.17;;;17.77;;
14235;SDS011;7202;50.718;7.072;2022-12-07T04:23:19;24.70;;;17.15;;
14235;SDS011;7202;50.718;7.072;2022-12-07T04:25:48;26.90;;;18.70;;
14235;SDS011;7202;50.718;7.072;2022-12-07T04:28:16;25.98;;;17.85;;
14235;SDS011;7202;50.718;7.072;2022-12-07T04:30:45;25.08;;;18.15;;
14235;SDS011;7202;50.718;7.072;2022-12-07T04:33:13;27.48;;;19.58;;
14235;SDS011;7202;50.718;7.072;2022-12-07T04:35:42;27.40;;;19.13;;
14235;SDS011;7202;50.718;7.072;2022-12-07T04:38:12;31.20;;;18.95;;
14235;SDS011;7202;50.718;7.072;2022-12-07T04:40:41;26.17;;;18.30;;
14235;SDS011;7202;50.718;7.072;2022-12-07T04:43:09;28.95;;;19.40;;
14235;SDS011;7202;50.718;7.072;2022-12-07T04:45:38;28.05;;;19.00;;
14235;SDS011;7202;50.718;7.072;2022-12-07T04:48:06;28.05;;;18.88;;
14235;SDS011;7202;50.718;7.072;2022-12-07T04:50:35;29.20;;;19.67;;
14235;SDS011;7202;50.718;7.072;2022-12-07T04:53:13;26.55;;;18.45;;
14235;SDS011;7202;50.718;7.072;2022-12-07T04:55:42;31.67;;;19.08;;
14235;SDS011;7202;50.718;7.072;2022-12-07T04:58:11;27.88;;;18.25;;
14235;SDS011;7202;50.718;7.072;2022-12-07T05:00:40;27.75;;;18.92;;
14235;SDS011;7202;50.718;7.072;2022-12-07T05:03:09;31.27;;;18.90;;
14235;SDS011;7202;50.718;7.072;2022-12-07T05:05:39;29.25;;;18.73;;
14235;SDS011;7202;50.718;7.072;2022-12-07T05:08:08;30.25;;;19.38;;
14235;SDS011;7202;50.718;7.072;2022-12-07T05:10:38;29.15;;;18.50;;
14235;SDS011;7202;50.718;7.072;2022-12-07T05:13:06;28.65;;;18.05;;
14235;SDS011;7202;50.718;7.072;2022-12-07T05:15:35;28.02;;;17.98;;
14235;SDS011;7202;50.718;7.072;2022-12-07T05:18:04;28.30;;;18.52;;
14235;SDS011;7202;50.718;7.072;2022-12-07T05:20:32;31.48;;;19.13;;
14235;SDS011;7202;50.718;7.072;2022-12-07T05:23:08;27.25;;;17.25;;
14235;SDS011;7202;50.718;7.072;2022-12-07T05:25:38;28.58;;;17.67;;
14235;SDS011;7202;50.718;7.072;2022-12-07T05:28:06;29.85;;;18.25;;
14235;SDS011;7202;50.718;7.072;2022-12-07T05:30:35;29.10;;;17.30;;
14235;SDS011;7202;50.718;7.072;2022-12-07T05:33:04;27.67;;;17.88;;
14235;SDS011;7202;50.718;7.072;2022-12-07T05:35:32;28.52;;;17.50;;
14235;SDS011;7202;50.718;7.072;2022-12-07T05:38:01;29.48;;;17.35;;
14235;SDS011;7202;50.718;7.072;2022-12-07T05:40:30;27.65;;;17.60;;
14235;SDS011;7202;50.718;7.072;2022-12-07T05:43:00;31.98;;;19.00;;
14235;SDS011;7202;50.718;7.072;2022-12-07T05:45:31;27.35;;;17.55;;
14235;SDS011;7202;50.718;7.072;2022-12-07T05:47:59;25.35;;;17.55;;
14235;SDS011;7202;50.718;7.072;2022-12-07T05:50:28;31.17;;;18.38;;
14235;SDS011;7202;50.718;7.072;2022-12-07T05:52:59;29.63;;;18.02;;
14235;SDS011;7202;50.718;7.072;2022-12-07T05:55:28;26.10;;;17.17;;
14235;SDS011;7202;50.718;7.072;2022-12-07T05:57:57;25.02;;;16.27;;
14235;SDS011;7202;50.718;7.072;2022-12-07T06:00:44;29.13;;;16.67;;
14235;SDS011;7202;50.718;7.072;2022-12-07T06:03:17;23.23;;;16.23;;
14235;SDS011;7202;50.718;7.072;2022-12-07T06:05:45;28.23;;;16.67;;
14235;SDS011;7202;50.718;7.072;2022-12-07T06:08:14;27.48;;;17.27;;
14235;SDS011;7202;50.718;7.072;2022-12-07T06:10:43;31.70;;;16.70;;
14235;SDS011;7202;50.718;7.072;2022-12-07T06:13:11;26.23;;;16.02;;
14235;SDS011;7202;50.718;7.072;2022-12-07T06:15:39;27.13;;;16.90;;
14235;SDS011;7202;50.718;7.072;2022-12-07T06:18:09;23.30;;;15.23;;
14235;SDS011;7202;50.718;7.072;2022-12-07T06:20:38;28.00;;;17.55;;
14235;SDS011;7202;50.718;7.072;2022-12-07T06:23:06;25.83;;;16.63;;
14235;SDS011;7202;50.718;7.072;2022-12-07T06:25:37;27.30;;;15.93;;
14235;SDS011;7202;50.718;7.072;2022-12-07T06:28:06;27.60;;;16.45;;
14235;SDS011;7202;50.718;7.072;2022-12-07T06:30:35;28.98;;;16.80;;
14235;SDS011;7202;50.718;7.072;2022-12-07T06:33:03;30.63;;;18.38;;
14235;SDS011;7202;50.718;7.072;2022-12-07T06:35:34;30.77;;;17.83;;
14235;SDS011;7202;50.718;7.072;2022-12-07T06:38:03;29.08;;;17.77;;
14235;SDS011;7202;50.718;7.072;2022-12-07T06:40:31;29.48;;;17.40;;
14235;SDS011;7202;50.718;7.072;2022-12-07T06:43:00;27.55;;;16.90;;
14235;SDS011;7202;50.718;7.072;2022-12-07T06:45:28;29.10;;;16.42;;
14235;SDS011;7202;50.718;7.072;2022-12-07T06:47:57;27.00;;;16.65;;
14235;SDS011;7202;50.718;7.072;2022-12-07T06:50:26;28.17;;;16.70;;
14235;SDS011;7202;50.718;7.072;2022-12-07T06:52:56;25.13;;;15.65;;
14235;SDS011;7202;50.718;7.072;2022-12-07T06:55:24;23.52;;;14.77;;
14235;SDS011;7202;50.718;7.072;2022-12-07T06:57:53;23.45;;;16.23;;
14235;SDS011;7202;50.718;7.072;2022-12-07T07:00:22;23.70;;;16.00;;
14235;SDS011;7202;50.718;7.072;2022-12-07T07:02:50;23.15;;;14.80;;
14235;SDS011;7202;50.718;7.072;2022-12-07T07:05:19;25.20;;;15.70;;
14235;SDS011;7202;50.718;7.072;2022-12-07T07:07:48;22.45;;;14.65;;
14235;SDS011;7202;50.718;7.072;2022-12-07T07:10:39;21.23;;;13.63;;
14235;SDS011;7202;50.718;7.072;2022-12-07T07:13:08;24.15;;;13.50;;
14235;SDS011;7202;50.718;7.072;2022-12-07T07:15:37;19.38;;;12.68;;
14235;SDS011;7202;50.718;7.072;2022-12-07T07:18:06;19.63;;;13.23;;
14235;SDS011;7202;50.718;7.072;2022-12-07T07:20:35;23.40;;;13.82;;
14235;SDS011;7202;50.718;7.072;2022-12-07T07:23:03;21.63;;;13.85;;
14235;SDS011;7202;50.718;7.072;2022-12-07T07:25:33;22.42;;;13.77;;
14235;SDS011;7202;50.718;7.072;2022-12-07T07:28:03;21.08;;;12.70;;
14235;SDS011;7202;50.718;7.072;2022-12-07T07:30:32;22.92;;;13.68;;
14235;SDS011;7202;50.718;7.072;2022-12-07T07:33:01;19.60;;;12.90;;
14235;SDS011;7202;50.718;7.072;2022-12-07T07:35:31;21.23;;;13.43;;
14235;SDS011;7202;50.718;7.072;2022-12-07T07:38:01;25.25;;;14.52;;
14235;SDS011;7202;50.718;7.072;2022-12-07T07:40:30;22.50;;;13.55;;
14235;SDS011;7202;50.718;7.072;2022-12-07T07:42:58;24.48;;;13.93;;
14235;SDS011;7202;50.718;7.072;2022-12-07T07:45:28;22.73;;;13.50;;
14235;SDS011;7202;50.718;7.072;2022-12-07T07:47:57;25.70;;;14.13;;
14235;SDS011;7202;50.718;7.072;2022-12-07T07:50:25;25.67;;;14.52;;
14235;SDS011;7202;50.718;7.072;2022-12-07T07:52:55;23.48;;;14.50;;
14235;SDS011;7202;50.718;7.072;2022-12-07T07:55:25;21.75;;;13.52;;
14235;SDS011;7202;50.718;7.072;2022-12-07T07:57:53;21.85;;;13.77;;
14235;SDS011;7202;50.718;7.072;2022-12-07T08:00:22;24.33;;;15.10;;
14235;SDS011;7202;50.718;7.072;2022-12-07T08:02:52;23.65;;;13.57;;
14235;SDS011;7202;50.718;7.072;2022-12-07T08:05:21;21.55;;;14.00;;
14235;SDS011;7202;50.718;7.072;2022-12-07T08:07:50;26.80;;;15.45;;
14235;SDS011;7202;50.718;7.072;2022-12-07T08:10:18;26.42;;;16.02;;
14235;SDS011;7202;50.718;7.072;2022-12-07T08:12:47;23.95;;;14.85;;
14235;SDS011;7202;50.718;7.072;2022-12-07T08:15:33;27.13;;;14.48;;
14235;SDS011;7202;50.718;7.072;2022-12-07T08:18:06;25.52;;;15.50;;
14235;SDS011;7202;50.718;7.072;2022-12-07T08:20:35;26.55;;;15.90;;
14235;SDS011;7202;50.718;7.072;2022-12-07T08:23:05;29.45;;;15.38;;
14235;SDS011;7202;50.718;7.072;2022-12-07T08:25:35;29.83;;;15.63;;
14235;SDS011;7202;50.718;7.072;2022-12-07T08:28:03;24.95;;;16.23;;
14235;SDS011;7202;50.718;7.072;2022-12-07T08:30:32;29.02;;;16.52;;
14235;SDS011;7202;50.718;7.072;2022-12-07T08:33:01;27.45;;;17.00;;
14235;SDS011;7202;50.718;7.072;2022-12-07T08:35:33;28.20;;;16.30;;
14235;SDS011;7202;50.718;7.072;2022-12-07T08:38:02;35.42;;;16.83;;
14235;SDS011;7202;50.718;7.072;2022-12-07T08:40:31;29.92;;;17.95;;
14235;SDS011;7202;50.718;7.072;2022-12-07T08:42:59;29.38;;;17.80;;
14235;SDS011;7202;50.718;7.072;2022-12-07T08:45:28;25.77;;;17.25;;
14235;SDS011;7202;50.718;7.072;2022-12-07T08:48:01;31.23;;;17.30;;
14235;SDS011;7202;50.718;7.072;2022-12-07T08:50:31;26.67;;;17.20;;
14235;SDS011;7202;50.718;7.072;2022-12-07T08:53:04;30.90;;;16.58;;
14235;SDS011;7202;50.718;7.072;2022-12-07T08:55:34;26.80;;;15.77;;
14235;SDS011;7202;50.718;7.072;2022-12-07T08:58:03;31.75;;;17.00;;
14235;SDS011;7202;50.718;7.072;2022-12-07T09:00:31;27.40;;;16.83;;
14235;SDS011;7202;50.718;7.072;2022-12-07T09:03:00;30.75;;;18.35;;
14235;SDS011;7202;50.718;7.072;2022-12-07T09:05:29;28.10;;;15.63;;
14235;SDS011;7202;50.718;7.072;2022-12-07T09:07:59;28.40;;;17.80;;
14235;SDS011;7202;50.718;7.072;2022-12-07T09:10:29;26.20;;;15.88;;
14235;SDS011;7202;50.718;7.072;2022-12-07T09:12:58;27.33;;;15.75;;
14235;SDS011;7202;50.718;7.072;2022-12-07T09:15:28;28.05;;;17.77;;
14235;SDS011;7202;50.718;7.072;2022-12-07T09:17:57;25.52;;;16.23;;
14235;SDS011;7202;50.718;7.072;2022-12-07T09:20:26;22.02;;;14.48;;
14235;SDS011;7202;50.718;7.072;2022-12-07T09:22:54;22.88;;;14.85;;
14235;SDS011;7202;50.718;7.072;2022-12-07T09:25:24;20.38;;;13.90;;
14235;SDS011;7202;50.718;7.072;2022-12-07T09:27:56;23.27;;;14.15;;
14235;SDS011;7202;50.718;7.072;2022-12-07T09:30:25;25.02;;;14.07;;
14235;SDS011;7202;50.718;7.072;2022-12-07T09:32:55;24.75;;;14.25;;
14235;SDS011;7202;50.718;7.072;2022-12-07T09:35:25;27.85;;;14.88;;
14235;SDS011;7202;50.718;7.072;2022-12-07T09:37:53;22.70;;;13.00;;
14235;SDS011;7202;50.718;7.072;2022-12-07T09:40:22;22.83;;;12.55;;
14235;SDS011;7202;50.718;7.072;2022-12-07T09:42:53;19.15;;;13.25;;
14235;SDS011;7202;50.718;7.072;2022-12-07T09:45:24;19.38;;;12.13;;
14235;SDS011;7202;50.718;7.072;2022-12-07T09:47:54;17.70;;;12.30;;
14235;SDS011;7202;50.718;7.072;2022-12-07T09:50:24;18.00;;;11.98;;
14235;SDS011;7202;50.718;7.072;2022-12-07T09:52:55;23.83;;;11.32;;
14235;SDS011;7202;50.718;7.072;2022-12-07T09:55:36;19.33;;;11.05;;
14235;SDS011;7202;50.718;7.072;2022-12-07T09:58:05;22.45;;;12.50;;
14235;SDS011;7202;50.718;7.072;2022-12-07T10:00:34;19.08;;;11.13;;
14235;SDS011;7202;50.718;7.072;2022-12-07T10:03:02;19.35;;;11.05;;
14235;SDS011;7202;50.718;7.072;2022-12-07T10:05:32;17.48;;;11.13;;
14235;SDS011;7202;50.718;7.072;2022-12-07T10:08:03;15.63;;;10.50;;
14235;SDS011;7202;50.718;7.072;2022-12-07T10:10:33;16.25;;;11.00;;
14235;SDS011;7202;50.718;7.072;2022-12-07T10:13:06;19.60;;;11.95;;
14235;SDS011;7202;50.718;7.072;2022-12-07T10:15:44;15.73;;;10.52;;
14235;SDS011;7202;50.718;7.072;2022-12-07T10:18:25;17.00;;;10.85;;
14235;SDS011;7202;50.718;7.072;2022-12-07T10:21:05;16.80;;;9.32;;
14235;SDS011;7202;50.718;7.072;2022-12-07T10:23:39;17.63;;;9.13;;
14235;SDS011;7202;50.718;7.072;2022-12-07T10:28:58;13.77;;;9.07;;
14235;SDS011;7202;50.718;7.072;2022-12-07T10:31:28;12.48;;;8.85;;
14235;SDS011;7202;50.718;7.072;2022-12-07T10:33:58;15.65;;;9.15;;
14235;SDS011;7202;50.718;7.072;2022-12-07T10:36:33;13.27;;;8.35;;
14235;SDS011;7202;50.718;7.072;2022-12-07T10:39:11;17.38;;;9.85;;
14235;SDS011;7202;50.718;7.072;2022-12-07T10:41:53;15.77;;;9.27;;
14235;SDS011;7202;50.718;7.072;2022-12-07T10:44:24;12.00;;;7.63;;
14235;SDS011;7202;50.718;7.072;2022-12-07T10:47:01;13.23;;;7.78;;
14235;SDS011;7202;50.718;7.072;2022-12-07T10:50:06;15.20;;;7.72;;
14235;SDS011;7202;50.718;7.072;2022-12-07T10:52:59;11.52;;;7.00;;
14235;SDS011;7202;50.718;7.072;2022-12-07T10:55:41;14.35;;;7.88;;
14235;SDS011;7202;50.718;7.072;2022-12-07T10:58:30;13.18;;;6.90;;
14235;SDS011;7202;50.718;7.072;2022-12-07T11:01:10;15.85;;;7.60;;
14235;SDS011;7202;50.718;7.072;2022-12-07T11:04:03;11.23;;;7.32;;
14235;SDS011;7202;50.718;7.072;2022-12-07T11:06:44;11.70;;;6.90;;
14235;SDS011;7202;50.718;7.072;2022-12-07T11:09:34;8.98;;;6.03;;
14235;SDS011;7202;50.718;7.072;2022-12-07T11:12:40;11.90;;;7.10;;
14235;SDS011;7202;50.718;7.072;2022-12-07T11:15:22;12.50;;;6.20;;
14235;SDS011;7202;50.718;7.072;2022-12-07T11:18:00;10.23;;;6.35;;
14235;SDS011;7202;50.718;7.072;2022-12-07T11:20:39;11.95;;;6.00;;
14235;SDS011;7202;50.718;7.072;2022-12-07T11:23:14;10.30;;;5.55;;
14235;SDS011;7202;50.718;7.072;2022-12-07T11:25:50;7.20;;;4.75;;
14235;SDS011;7202;50.718;7.072;2022-12-07T11:28:26;6.70;;;4.60;;
14235;SDS011;7202;50.718;7.072;2022-12-07T11:31:08;9.02;;;4.13;;
14235;SDS011;7202;50.718;7.072;2022-12-07T11:33:43;9.43;;;5.00;;
14235;SDS011;7202;50.718;7.072;2022-12-07T11:36:22;8.02;;;4.32;;
14235;SDS011;7202;50.718;7.072;2022-12-07T11:39:02;8.18;;;4.40;;
14235;SDS011;7202;50.718;7.072;2022-12-07T11:41:32;8.25;;;4.60;;
14235;SDS011;7202;50.718;7.072;2022-12-07T11:44:06;12.35;;;6.55;;
14235;SDS011;7202;50.718;7.072;2022-12-07T11:49:27;15.60;;;8.00;;
14235;SDS011;7202;50.718;7.072;2022-12-07T11:52:05;17.42;;;8.77;;
14235;SDS011;7202;50.718;7.072;2022-12-07T11:54:42;9.02;;;5.95;;
14235;SDS011;7202;50.718;7.072;2022-12-07T11:57:15;6.93;;;5.05;;
14235;SDS011;7202;50.718;7.072;2022-12-07T11:59:49;9.60;;;3.97;;
14235;SDS011;7202;50.718;7.072;2022-12-07T12:02:22;9.45;;;4.50;;
14235;SDS011;7202;50.718;7.072;2022-12-07T12:04:58;10.73;;;4.30;;
14235;SDS011;7202;50.718;7.072;2022-12-07T12:07:33;7.78;;;4.30;;
14235;SDS011;7202;50.718;7.072;2022-12-07T12:10:37;9.52;;;4.70;;
14235;SDS011;7202;50.718;7.072;2022-12-07T12:16:51;6.43;;;3.58;;
14235;SDS011;7202;50.718;7.072;2022-12-07T12:19:44;8.45;;;3.70;;
14235;SDS011;7202;50.718;7.072;2022-12-07T12:22:30;7.30;;;4.60;;
14235;SDS011;7202;50.718;7.072;2022-12-07T12:25:04;7.90;;;4.88;;
14235;SDS011;7202;50.718;7.072;2022-12-07T12:27:35;11.27;;;4.10;;
14235;SDS011;7202;50.718;7.072;2022-12-07T12:30:07;9.80;;;4.97;;
14235;SDS011;7202;50.718;7.072;2022-12-07T12:32:54;9.25;;;5.03;;
14235;SDS011;7202;50.718;7.072;2022-12-07T12:35:33;9.82;;;4.95;;
14235;SDS011;7202;50.718;7.072;2022-12-07T12:40:56;7.85;;;4.60;;
14235;SDS011;7202;50.718;7.072;2022-12-07T12:43:45;8.52;;;4.95;;
14235;SDS011;7202;50.718;7.072;2022-12-07T12:58:37;11.90;;;5.65;;
14235;SDS011;7202;50.718;7.072;2022-12-07T13:04:23;9.93;;;4.88;;
14235;SDS011;7202;50.718;7.072;2022-12-07T13:07:07;9.18;;;5.07;;
14235;SDS011;7202;50.718;7.072;2022-12-07T13:09:42;11.38;;;5.75;;
14235;SDS011;7202;50.718;7.072;2022-12-07T13:12:13;14.75;;;7.78;;
14235;SDS011;7202;50.718;7.072;2022-12-07T13:17:59;17.00;;;5.70;;
14235;SDS011;7202;50.718;7.072;2022-12-07T13:20:40;8.50;;;4.90;;
14235;SDS011;7202;50.718;7.072;2022-12-07T13:23:18;9.98;;;5.75;;
14235;SDS011;7202;50.718;7.072;2022-12-07T13:25:54;8.57;;;4.75;;
14235;SDS011;7202;50.718;7.072;2022-12-07T13:28:32;9.13;;;5.20;;
14235;SDS011;7202;50.718;7.072;2022-12-07T13:34:03;9.45;;;5.82;;
14235;SDS011;7202;50.718;7.072;2022-12-07T13:36:56;12.55;;;6.38;;
14235;SDS011;7202;50.718;7.072;2022-12-07T13:39:25;11.77;;;5.93;;
14235;SDS011;7202;50.718;7.072;2022-12-07T13:41:55;11.85;;;6.60;;
14235;SDS011;7202;50.718;7.072;2022-12-07T13:44:26;11.18;;;5.95;;
14235;SDS011;7202;50.718;7.072;2022-12-07T13:46:59;10.40;;;6.10;;
14235;SDS011;7202;50.718;7.072;2022-12-07T13:49:37;11.88;;;6.07;;
14235;SDS011;7202;50.718;7.072;2022-12-07T13:52:13;14.93;;;6.60;;
14235;SDS011;7202;50.718;7.072;2022-12-07T13:54:44;12.68;;;6.30;;
14235;SDS011;7202;50.718;7.072;2022-12-07T13:57:14;9.90;;;5.50;;
14235;SDS011;7202;50.718;7.072;2022-12-07T13:59:45;10.65;;;5.15;;
14235;SDS011;7202;50.718;7.072;2022-12-07T14:02:19;10.25;;;5.35;;
14235;SDS011;7202;50.718;7.072;2022-12-07T14:04:49;8.07;;;4.47;;
14235;SDS011;7202;50.718;7.072;2022-12-07T14:07:20;11.73;;;4.40;;
14235;SDS011;7202;50.718;7.072;2022-12-07T14:09:57;8.50;;;3.50;;
14235;SDS011;7202;50.718;7.072;2022-12-07T14:12:28;9.60;;;3.25;;
14235;SDS011;7202;50.718;7.072;2022-12-07T14:14:58;5.10;;;2.80;;
14235;SDS011;7202;50.718;7.072;2022-12-07T14:17:30;7.95;;;3.20;;
14235;SDS011;7202;50.718;7.072;2022-12-07T14:19:59;7.13;;;3.28;;
14235;SDS011;7202;50.718;7.072;2022-12-07T14:22:30;7.90;;;4.35;;
14235;SDS011;7202;50.718;7.072;2022-12-07T14:25:13;10.48;;;4.30;;
14235;SDS011;7202;50.718;7.072;2022-12-07T14:27:49;5.78;;;3.47;;
14235;SDS011;7202;50.718;7.072;2022-12-07T14:30:22;5.03;;;2.30;;
14235;SDS011;7202;50.718;7.072;2022-12-07T14:32:56;3.40;;;1.90;;
14235;SDS011;7202;50.718;7.072;2022-12-07T14:35:27;4.53;;;2.92;;
14235;SDS011;7202;50.718;7.072;2022-12-07T14:37:56;6.43;;;2.60;;
14235;SDS011;7202;50.718;7.072;2022-12-07T14:40:26;8.93;;;3.72;;
14235;SDS011;7202;50.718;7.072;2022-12-07T14:42:57;7.40;;;3.95;;
14235;SDS011;7202;50.718;7.072;2022-12-07T14:45:28;10.18;;;4.78;;
14235;SDS011;7202;50.718;7.072;2022-12-07T14:47:58;9.40;;;4.80;;
14235;SDS011;7202;50.718;7.072;2022-12-07T14:50:48;10.80;;;5.05;;
14235;SDS011;7202;50.718;7.072;2022-12-07T14:53:39;8.98;;;4.78;;
14235;SDS011;7202;50.718;7.072;2022-12-07T14:56:12;10.52;;;5.32;;
14235;SDS011;7202;50.718;7.072;2022-12-07T14:58:40;11.73;;;5.47;;
14235;SDS011;7202;50.718;7.072;2022-12-07T15:01:09;16.17;;;7.22;;
14235;SDS011;7202;50.718;7.072;2022-12-07T15:03:39;12.70;;;7.10;;
14235;SDS011;7202;50.718;7.072;2022-12-07T15:06:10;12.45;;;6.22;;
14235;SDS011;7202;50.718;7.072;2022-12-07T15:08:42;12.15;;;6.75;;
14235;SDS011;7202;50.718;7.072;2022-12-07T15:11:12;17.35;;;7.38;;
14235;SDS011;7202;50.718;7.072;2022-12-07T15:13:41;13.38;;;6.82;;
14235;SDS011;7202;50.718;7.072;2022-12-07T15:16:27;13.93;;;7.63;;
14235;SDS011;7202;50.718;7.072;2022-12-07T15:19:18;16.90;;;7.70;;
14235;SDS011;7202;50.718;7.072;2022-12-07T15:21:55;14.85;;;7.70;;
14235;SDS011;7202;50.718;7.072;2022-12-07T15:24:25;12.93;;;7.35;;
14235;SDS011;7202;50.718;7.072;2022-12-07T15:26:54;14.05;;;8.32;;
14235;SDS011;7202;50.718;7.072;2022-12-07T15:29:23;14.55;;;7.72;;
14235;SDS011;7202;50.718;7.072;2022-12-07T15:31:54;12.55;;;7.40;;
14235;SDS011;7202;50.718;7.072;2022-12-07T15:34:26;9.25;;;6.90;;
14235;SDS011;7202;50.718;7.072;2022-12-07T15:37:03;10.50;;;7.07;;
14235;SDS011;7202;50.718;7.072;2022-12-07T15:39:33;15.13;;;6.80;;
14235;SDS011;7202;50.718;7.072;2022-12-07T15:42:01;12.32;;;6.43;;
14235;SDS011;7202;50.718;7.072;2022-12-07T15:44:30;14.07;;;6.93;;
14235;SDS011;7202;50.718;7.072;2022-12-07T15:47:16;9.68;;;6.55;;
14235;SDS011;7202;50.718;7.072;2022-12-07T15:49:46;14.05;;;6.47;;